createdAt,value
2024-03-05T00:02:18.506Z,4.61
2024-03-05T00:04:46.559Z,4.60
2024-03-05T00:07:16.223Z,4.62
2024-03-05T00:09:42.966Z,4.64
2024-03-05T00:12:12.317Z,4.64
2024-03-05T00:14:39.077Z,4.63
2024-03-05T00:17:05.777Z,4.61
2024-03-05T00:19:32.491Z,4.60
2024-03-05T00:21:59.303Z,4.56
2024-03-05T00:24:26.030Z,4.53
2024-03-05T00:26:53.245Z,4.54
2024-03-05T00:29:19.908Z,4.52
2024-03-05T00:31:47.486Z,4.48
2024-03-05T00:34:15.136Z,4.45
2024-03-05T00:36:41.880Z,4.43
2024-03-05T00:39:08.692Z,4.46
2024-03-05T00:41:50.522Z,4.46
2024-03-05T00:44:17.536Z,4.43
2024-03-05T00:46:44.248Z,4.38
2024-03-05T00:49:13.729Z,4.35
2024-03-05T00:51:40.859Z,4.33
2024-03-05T00:54:08.565Z,4.36
2024-03-05T00:56:35.507Z,4.34
2024-03-05T00:59:02.201Z,4.35
2024-03-05T01:01:29.168Z,4.37
2024-03-05T01:03:56.019Z,4.36
2024-03-05T01:06:22.578Z,4.34
2024-03-05T01:08:49.228Z,4.31
2024-03-05T01:11:16.016Z,4.25
2024-03-05T01:13:42.831Z,4.26
2024-03-05T01:16:10.013Z,4.28
2024-03-05T01:18:37.395Z,4.30
2024-03-05T01:21:06.544Z,4.32
2024-03-05T01:23:33.658Z,4.34
2024-03-05T01:26:00.775Z,4.31
2024-03-05T01:28:28.706Z,4.32
2024-03-05T01:30:55.544Z,4.34
2024-03-05T01:33:23.375Z,4.37
2024-03-05T01:35:51.767Z,4.37
2024-03-05T01:38:18.460Z,4.40
2024-03-05T01:40:45.695Z,4.44
2024-03-05T01:43:12.647Z,4.48
2024-03-05T01:45:39.447Z,4.50
2024-03-05T01:48:06.335Z,4.48
2024-03-05T01:50:37.488Z,4.48
2024-03-05T01:53:07.468Z,4.50
2024-03-05T01:55:36.192Z,4.51
2024-03-05T01:58:04.433Z,4.51
2024-03-05T02:00:31.838Z,4.51
2024-03-05T02:02:59.052Z,4.54
2024-03-05T02:05:26.109Z,4.56
2024-03-05T02:07:55.881Z,4.58
2024-03-05T02:10:22.642Z,4.61
2024-03-05T02:12:49.309Z,4.62
2024-03-05T02:15:16.388Z,4.65
2024-03-05T02:17:48.901Z,4.65
2024-03-05T02:20:15.578Z,4.64
2024-03-05T02:22:42.884Z,4.65
2024-03-05T02:25:10.555Z,4.65
2024-03-05T02:27:42.030Z,4.64
2024-03-05T02:30:12.928Z,4.64
2024-03-05T02:32:41.552Z,4.66
2024-03-05T02:35:11.814Z,4.66
2024-03-05T02:37:39.450Z,4.66
2024-03-05T02:40:11.325Z,4.66
2024-03-05T02:42:38.116Z,4.65
2024-03-05T02:45:05.578Z,4.64
2024-03-05T02:47:35.133Z,4.63
2024-03-05T02:50:04.144Z,4.62
2024-03-05T02:52:31.686Z,4.62
2024-03-05T02:54:58.682Z,4.62
2024-03-05T02:57:25.448Z,4.61
2024-03-05T02:59:52.329Z,4.60
2024-03-05T03:02:20.869Z,4.58
2024-03-05T03:04:48.185Z,4.57
2024-03-05T03:07:14.894Z,4.54
2024-03-05T03:09:45.854Z,4.49
2024-03-05T03:12:14.445Z,4.50
2024-03-05T03:14:44.550Z,4.50
2024-03-05T03:17:11.737Z,4.50
2024-03-05T03:19:38.511Z,4.50
2024-03-05T03:22:05.332Z,4.49
2024-03-05T03:24:32.055Z,4.50
2024-03-05T03:26:58.829Z,4.47
2024-03-05T03:29:27.102Z,4.47
2024-03-05T03:31:55.921Z,4.44
2024-03-05T03:34:23.149Z,4.43
2024-03-05T03:36:49.882Z,4.43
2024-03-05T03:39:23.767Z,4.41
2024-03-05T03:41:56.687Z,4.41
2024-03-05T03:44:23.476Z,4.40
2024-03-05T03:46:51.012Z,4.38
2024-03-05T03:49:26.451Z,4.36
2024-03-05T03:51:54.080Z,4.36
2024-03-05T03:54:22.013Z,4.34
2024-03-05T03:56:49.192Z,4.32
2024-03-05T03:59:15.905Z,4.29
2024-03-05T04:01:47.070Z,4.28
2024-03-05T04:04:14.402Z,4.27
2024-03-05T04:06:46.292Z,4.25
2024-03-05T04:09:14.529Z,4.20
2024-03-05T04:11:42.085Z,4.16
2024-03-05T04:14:09.285Z,4.12
2024-03-05T04:16:40.137Z,4.10
2024-03-05T04:19:10.104Z,4.10
2024-03-05T04:21:41.646Z,4.06
2024-03-05T04:24:13.562Z,4.03
2024-03-05T04:26:41.775Z,4.02
2024-03-05T04:29:09.994Z,3.99
2024-03-05T04:31:44.648Z,3.94
2024-03-05T04:34:19.649Z,3.96
2024-03-05T04:36:46.305Z,3.95
2024-03-05T04:39:15.874Z,3.95
2024-03-05T04:41:45.691Z,3.89
2024-03-05T04:44:14.244Z,3.87
2024-03-05T04:46:41.449Z,3.83
2024-03-05T04:49:08.278Z,3.80
2024-03-05T04:51:35.509Z,3.79
2024-03-05T04:54:02.625Z,3.77
2024-03-05T04:56:29.235Z,3.75
2024-03-05T04:58:55.940Z,3.70
2024-03-05T05:01:22.881Z,3.67
2024-03-05T05:03:49.712Z,3.63
2024-03-05T05:06:16.476Z,3.61
2024-03-05T05:08:43.367Z,3.61
2024-03-05T05:11:10.245Z,3.62
2024-03-05T05:13:37.111Z,3.62
2024-03-05T05:16:05.647Z,3.58
2024-03-05T05:18:32.230Z,3.56
2024-03-05T05:20:58.887Z,3.55
2024-03-05T05:23:25.566Z,3.54
2024-03-05T05:25:53.412Z,3.55
2024-03-05T05:28:20.135Z,3.56
2024-03-05T05:30:46.841Z,3.57
2024-03-05T05:33:13.755Z,3.56
2024-03-05T05:35:40.635Z,3.57
2024-03-05T05:38:10.942Z,3.57
2024-03-05T05:40:37.561Z,3.57
2024-03-05T05:43:04.623Z,3.59
2024-03-05T05:45:31.583Z,3.60
2024-03-05T05:47:58.645Z,3.59
2024-03-05T05:50:34.693Z,3.56
2024-03-05T05:53:01.788Z,3.55
2024-03-05T05:55:29.193Z,3.56
2024-03-05T05:57:58.875Z,3.55
2024-03-05T06:00:39.850Z,3.55
2024-03-05T06:03:08.815Z,3.56
2024-03-05T06:05:38.872Z,3.57
2024-03-05T06:08:16.061Z,3.57
2024-03-05T06:10:43.803Z,3.59
2024-03-05T06:13:12.142Z,3.58
2024-03-05T06:15:39.530Z,3.59
2024-03-05T06:18:06.670Z,3.61
2024-03-05T06:20:33.515Z,3.61
2024-03-05T06:23:01.399Z,3.61
2024-03-05T06:25:28.391Z,3.63
2024-03-05T06:27:55.444Z,3.64
2024-03-05T06:30:23.328Z,3.65
2024-03-05T06:32:51.890Z,3.63
2024-03-05T06:35:22.965Z,3.63
2024-03-05T06:37:50.733Z,3.64
2024-03-05T06:40:23.627Z,3.66
2024-03-05T06:42:53.809Z,3.67
2024-03-05T06:45:28.165Z,3.68
2024-03-05T06:48:10.420Z,3.67
2024-03-05T06:50:42.806Z,3.68
2024-03-05T06:53:29.671Z,3.68
2024-03-05T06:56:16.201Z,3.69
2024-03-05T06:58:45.210Z,3.70
2024-03-05T07:01:13.975Z,3.73
2024-03-05T07:03:42.795Z,3.77
2024-03-05T07:06:15.817Z,3.76
2024-03-05T07:08:44.921Z,3.78
2024-03-05T07:11:13.699Z,3.80
2024-03-05T07:13:44.953Z,3.83
2024-03-05T07:16:16.517Z,3.84
2024-03-05T07:18:44.634Z,3.84
2024-03-05T07:21:11.813Z,3.82
2024-03-05T07:23:40.286Z,3.84
2024-03-05T07:26:07.823Z,3.85
2024-03-05T07:28:34.755Z,3.87
2024-03-05T07:31:02.462Z,3.91
2024-03-05T07:33:29.875Z,3.89
2024-03-05T07:35:57.365Z,3.91
2024-03-05T07:38:24.193Z,3.91
2024-03-05T07:40:51.902Z,3.91
2024-03-05T07:43:18.745Z,3.89
2024-03-05T07:45:48.091Z,3.92
2024-03-05T07:48:16.606Z,3.95
2024-03-05T07:50:44.706Z,3.96
2024-03-05T07:53:11.552Z,3.93
2024-03-05T07:55:46.154Z,3.94
2024-03-05T07:58:14.261Z,4.00
2024-03-05T08:00:41.312Z,4.03
2024-03-05T08:03:08.293Z,4.07
2024-03-05T08:05:35.318Z,4.12
2024-03-05T08:08:02.487Z,4.15
2024-03-05T08:10:29.662Z,4.19
2024-03-05T08:12:57.466Z,4.23
2024-03-05T08:15:25.322Z,4.22
2024-03-05T08:17:53.653Z,4.27
2024-03-05T08:20:24.568Z,4.29
2024-03-05T08:22:51.610Z,4.35
2024-03-05T08:25:19.671Z,4.37
2024-03-05T08:27:48.132Z,4.42
2024-03-05T08:30:18.073Z,4.44
2024-03-05T08:32:45.074Z,4.47
2024-03-05T08:35:12.369Z,4.50
2024-03-05T08:37:41.266Z,4.55
2024-03-05T08:40:16.311Z,4.59
2024-03-05T08:42:44.711Z,4.61
2024-03-05T08:45:13.149Z,4.64
2024-03-05T08:47:43.327Z,4.64
2024-03-05T08:50:11.786Z,4.67
2024-03-05T08:52:39.255Z,4.70
2024-03-05T08:55:08.725Z,4.74
2024-03-05T08:57:37.768Z,4.76
2024-03-05T09:00:16.306Z,4.76
2024-03-05T09:02:55.724Z,4.77
2024-03-05T09:05:22.395Z,4.81
2024-03-05T09:07:50.439Z,4.85
2024-03-05T09:10:18.295Z,4.87
2024-03-05T09:12:45.132Z,4.88
2024-03-05T09:15:12.873Z,4.88
2024-03-05T09:17:39.588Z,4.87
2024-03-05T09:20:18.746Z,4.86
2024-03-05T09:22:46.882Z,4.87
2024-03-05T09:25:16.670Z,4.91
2024-03-05T09:27:45.385Z,4.93
2024-03-05T09:30:15.529Z,4.94
2024-03-05T09:32:42.670Z,4.94
2024-03-05T09:35:10.439Z,4.98
2024-03-05T09:37:37.681Z,4.98
2024-03-05T09:40:17.280Z,4.97
2024-03-05T09:42:44.455Z,4.98
2024-03-05T09:45:15.613Z,4.98
2024-03-05T09:47:43.352Z,4.96
2024-03-05T09:50:12.862Z,4.97
2024-03-05T09:52:39.992Z,5.01
2024-03-05T09:55:07.690Z,5.03
2024-03-05T09:57:35.628Z,5.02
2024-03-05T10:00:04.697Z,5.03
2024-03-05T10:02:39.839Z,5.03
2024-03-05T10:05:11.086Z,5.03
2024-03-05T10:07:38.432Z,5.02
2024-03-05T10:10:12.012Z,5.04
2024-03-05T10:12:40.207Z,5.09
2024-03-05T10:15:17.826Z,5.11
2024-03-05T10:17:45.766Z,5.12
2024-03-05T10:20:25.780Z,5.13
2024-03-05T10:22:54.116Z,5.12
2024-03-05T10:25:23.269Z,5.10
2024-03-05T10:27:51.462Z,5.10
2024-03-05T10:30:38.070Z,5.09
2024-03-05T10:33:10.405Z,5.05
2024-03-05T10:35:38.582Z,5.02
2024-03-05T10:38:08.844Z,5.00
2024-03-05T10:40:36.866Z,4.96
2024-03-05T10:43:05.918Z,4.95
2024-03-05T10:45:40.637Z,4.92
2024-03-05T10:48:08.341Z,4.91
2024-03-05T10:50:40.265Z,4.92
2024-03-05T10:53:10.919Z,4.92
2024-03-05T10:55:39.243Z,4.87
2024-03-05T10:58:12.044Z,4.85
2024-03-05T11:00:40.057Z,4.84
2024-03-05T11:03:11.692Z,4.85
2024-03-05T11:05:48.031Z,4.88
2024-03-05T11:08:18.595Z,4.88
2024-03-05T11:10:51.943Z,4.89
2024-03-05T11:13:20.421Z,4.88
2024-03-05T11:15:49.772Z,4.85
2024-03-05T11:18:31.987Z,4.85
2024-03-05T11:21:13.240Z,4.82
2024-03-05T11:23:54.737Z,4.78
2024-03-05T11:26:22.987Z,4.80
2024-03-05T11:28:55.933Z,4.79
2024-03-05T11:31:28.229Z,4.76
2024-03-05T11:34:04.370Z,4.76
2024-03-05T11:36:37.056Z,4.75
2024-03-05T11:39:08.880Z,4.75
2024-03-05T11:41:43.564Z,4.77
2024-03-05T11:44:41.895Z,4.77
2024-03-05T11:47:08.753Z,4.77
2024-03-05T11:49:37.355Z,4.80
2024-03-05T11:52:05.090Z,4.83
2024-03-05T11:54:36.354Z,4.80
2024-03-05T11:57:04.202Z,4.79
2024-03-05T11:59:50.883Z,4.80
2024-03-05T12:02:17.900Z,4.85
2024-03-05T12:04:48.199Z,4.88
2024-03-05T12:07:15.221Z,4.89
2024-03-05T12:09:42.263Z,4.87
2024-03-05T12:12:11.551Z,4.91
2024-03-05T12:14:55.382Z,4.93
2024-03-05T12:17:24.636Z,4.93
2024-03-05T12:19:59.901Z,4.92
2024-03-05T12:22:27.046Z,4.95
2024-03-05T12:24:53.997Z,4.93
2024-03-05T12:27:21.420Z,4.90
2024-03-05T12:29:48.458Z,4.86
2024-03-05T12:32:18.979Z,4.88
2024-03-05T12:34:48.530Z,4.94
2024-03-05T12:37:16.892Z,5.00
2024-03-05T12:39:43.589Z,5.05
2024-03-05T12:42:14.001Z,5.05
2024-03-05T12:44:41.194Z,5.05
2024-03-05T12:47:13.320Z,5.06
2024-03-05T12:49:47.307Z,5.03
2024-03-05T12:52:19.814Z,4.98
2024-03-05T12:54:47.777Z,4.95
2024-03-05T12:57:29.003Z,4.96
2024-03-05T13:00:06.764Z,4.98
2024-03-05T13:02:33.809Z,5.01
2024-03-05T13:05:01.555Z,4.95
2024-03-05T13:07:28.953Z,4.89
2024-03-05T13:09:55.722Z,4.86
2024-03-05T13:12:24.033Z,4.85
2024-03-05T13:14:51.113Z,4.83
2024-03-05T13:17:18.574Z,4.86
2024-03-05T13:19:45.797Z,4.89
2024-03-05T13:22:12.634Z,4.92
2024-03-05T13:24:39.963Z,4.93
2024-03-05T13:27:07.707Z,4.95
2024-03-05T13:29:36.249Z,4.98
2024-03-05T13:32:03.385Z,4.96
2024-03-05T13:34:30.454Z,4.94
2024-03-05T13:36:58.046Z,4.97
2024-03-05T13:39:24.918Z,5.00
2024-03-05T13:41:55.383Z,5.02
2024-03-05T13:44:22.840Z,5.03
2024-03-05T13:46:50.856Z,5.02
2024-03-05T13:49:20.156Z,5.04
2024-03-05T13:51:47.398Z,5.05
2024-03-05T13:54:14.307Z,5.04
2024-03-05T13:56:43.311Z,5.03
2024-03-05T13:59:14.148Z,5.07
2024-03-05T14:01:43.927Z,5.10
2024-03-05T14:04:11.280Z,5.12
2024-03-05T14:06:41.600Z,5.13
2024-03-05T14:09:11.693Z,5.15
2024-03-05T14:11:41.678Z,5.18
2024-03-05T14:14:09.614Z,5.20
2024-03-05T14:16:39.063Z,5.16
2024-03-05T14:19:06.378Z,5.17
2024-03-05T14:21:36.369Z,5.21
2024-03-05T14:24:03.717Z,5.25
2024-03-05T14:26:31.523Z,5.25
2024-03-05T14:28:58.832Z,5.21
2024-03-05T14:31:25.792Z,5.18
2024-03-05T14:33:52.839Z,5.18
2024-03-05T14:36:21.809Z,5.20
2024-03-05T14:38:49.414Z,5.18
2024-03-05T14:41:17.361Z,5.19
2024-03-05T14:43:46.484Z,5.21
2024-03-05T14:46:13.841Z,5.22
2024-03-05T14:48:42.516Z,5.18
2024-03-05T14:51:11.816Z,5.12
2024-03-05T14:53:39.562Z,5.12
2024-03-05T14:56:07.400Z,5.16
2024-03-05T14:58:34.338Z,5.20
2024-03-05T15:01:01.550Z,5.24
2024-03-05T15:03:28.822Z,5.26
2024-03-05T15:05:57.336Z,5.28
2024-03-05T15:08:24.342Z,5.32
2024-03-05T15:10:51.252Z,5.31
2024-03-05T15:13:18.294Z,5.30
2024-03-05T15:15:45.656Z,5.32
2024-03-05T15:18:15.122Z,5.35
2024-03-05T15:20:42.269Z,5.36
2024-03-05T15:23:11.141Z,5.37
2024-03-05T15:25:38.022Z,5.38
2024-03-05T15:28:07.862Z,5.38
2024-03-05T15:30:35.905Z,5.37
2024-03-05T15:33:04.475Z,5.39
2024-03-05T15:35:31.690Z,5.39
2024-03-05T15:37:59.175Z,5.40
2024-03-05T15:40:27.095Z,5.42
2024-03-05T15:42:58.777Z,5.40
2024-03-05T15:45:28.711Z,5.41
2024-03-05T15:47:56.712Z,5.42
2024-03-05T15:50:25.339Z,5.44
2024-03-05T15:52:57.585Z,5.45
2024-03-05T15:55:28.399Z,5.46
2024-03-05T15:58:03.322Z,5.46
2024-03-05T16:00:36.759Z,5.42
2024-03-05T16:03:06.485Z,5.36
2024-03-05T16:05:43.569Z,5.36
2024-03-05T16:08:21.310Z,5.35
2024-03-05T16:10:49.588Z,5.37
2024-03-05T16:13:16.951Z,5.38
2024-03-05T16:15:46.981Z,5.41
2024-03-05T16:18:15.191Z,5.41
2024-03-05T16:20:42.560Z,5.42
2024-03-05T16:23:09.863Z,5.44
2024-03-05T16:25:41.721Z,5.42
2024-03-05T16:28:10.095Z,5.43
2024-03-05T16:30:38.317Z,5.43
2024-03-05T16:33:08.772Z,5.42
2024-03-05T16:35:44.922Z,5.42
2024-03-05T16:38:14.727Z,5.42
2024-03-05T16:40:42.614Z,5.43
2024-03-05T16:43:10.132Z,5.41
2024-03-05T16:45:37.563Z,5.42
2024-03-05T16:48:09.036Z,5.43
2024-03-05T16:50:36.702Z,5.43
2024-03-05T16:53:06.427Z,5.45
2024-03-05T16:55:33.532Z,5.46
2024-03-05T16:58:01.115Z,5.48
2024-03-05T17:00:31.301Z,5.47
2024-03-05T17:03:08.195Z,5.47
2024-03-05T17:05:37.776Z,5.47
2024-03-05T17:08:07.116Z,5.49
2024-03-05T17:10:34.746Z,5.50
2024-03-05T17:13:04.725Z,5.51
2024-03-05T17:15:39.134Z,5.54
2024-03-05T17:18:07.606Z,5.55
2024-03-05T17:20:34.952Z,5.56
2024-03-05T17:23:06.763Z,5.55
2024-03-05T17:25:38.701Z,5.56
2024-03-05T17:28:09.042Z,5.58
2024-03-05T17:30:38.419Z,5.57
2024-03-05T17:33:11.705Z,5.57
2024-03-05T17:35:41.055Z,5.58
2024-03-05T17:38:10.358Z,5.56
2024-03-05T17:40:37.415Z,5.55
2024-03-05T17:43:04.554Z,5.56
2024-03-05T17:45:32.388Z,5.58
2024-03-05T17:48:05.309Z,5.57
2024-03-05T17:50:37.528Z,5.57
2024-03-05T17:53:05.123Z,5.58
2024-03-05T17:55:32.468Z,5.59
2024-03-05T17:57:59.389Z,5.60
2024-03-05T18:00:26.545Z,5.59
2024-03-05T18:02:55.379Z,5.60
2024-03-05T18:05:30.241Z,5.60
2024-03-05T18:07:57.161Z,5.60
2024-03-05T18:10:25.159Z,5.62
2024-03-05T18:12:53.285Z,5.62
2024-03-05T18:15:21.649Z,5.64
2024-03-05T18:17:51.219Z,5.63
2024-03-05T18:20:21.811Z,5.63
2024-03-05T18:22:49.918Z,5.62
2024-03-05T18:25:18.461Z,5.62
2024-03-05T18:27:54.981Z,5.63
2024-03-05T18:30:25.413Z,5.63
2024-03-05T18:32:53.493Z,5.62
2024-03-05T18:35:26.761Z,5.63
2024-03-05T18:37:55.344Z,5.62
2024-03-05T18:40:23.486Z,5.63
2024-03-05T18:42:52.316Z,5.64
2024-03-05T18:45:20.777Z,5.65
2024-03-05T18:47:59.137Z,5.65
2024-03-05T18:50:32.389Z,5.65
2024-03-05T18:53:00.634Z,5.65
2024-03-05T18:55:30.118Z,5.66
2024-03-05T18:57:57.224Z,5.66
2024-03-05T19:00:24.208Z,5.67
2024-03-05T19:02:54.342Z,5.67
2024-03-05T19:05:22.528Z,5.67
2024-03-05T19:07:50.517Z,5.67
2024-03-05T19:10:19.336Z,5.66
2024-03-05T19:12:47.515Z,5.66
2024-03-05T19:15:17.704Z,5.67
2024-03-05T19:17:47.850Z,5.67
2024-03-05T19:20:16.542Z,5.68
2024-03-05T19:22:43.664Z,5.67
2024-03-05T19:25:13.630Z,5.67
2024-03-05T19:27:41.647Z,5.68
2024-03-05T19:30:10.933Z,5.68
2024-03-05T19:32:42.183Z,5.71
2024-03-05T19:35:11.273Z,5.72
2024-03-05T19:37:41.748Z,5.72
2024-03-05T19:40:16.005Z,5.74
2024-03-05T19:42:44.845Z,5.73
2024-03-05T19:45:12.326Z,5.73
2024-03-05T19:47:39.408Z,5.74
2024-03-05T19:50:07.239Z,5.77
2024-03-05T19:52:38.947Z,5.76
2024-03-05T19:55:07.429Z,5.76
2024-03-05T19:57:34.479Z,5.77
2024-03-05T20:00:03.257Z,5.78
2024-03-05T20:02:39.796Z,5.77
2024-03-05T20:05:07.208Z,5.77
2024-03-05T20:07:34.559Z,5.77
2024-03-05T20:10:02.240Z,5.77
2024-03-05T20:12:29.878Z,5.77
2024-03-05T20:14:56.703Z,5.78
2024-03-05T20:17:25.549Z,5.80
2024-03-05T20:19:54.438Z,5.80
2024-03-05T20:22:24.917Z,5.82
2024-03-05T20:24:58.730Z,5.82
2024-03-05T20:27:27.738Z,5.83
2024-03-05T20:29:57.834Z,5.83
2024-03-05T20:32:31.056Z,5.83
2024-03-05T20:34:59.767Z,5.82
2024-03-05T20:37:27.172Z,5.82
2024-03-05T20:39:56.742Z,5.81
2024-03-05T20:42:23.580Z,5.81
2024-03-05T20:44:50.490Z,5.81
2024-03-05T20:47:17.748Z,5.82
2024-03-05T20:49:46.193Z,5.84
2024-03-05T20:52:13.525Z,5.86
2024-03-05T20:54:40.703Z,5.87
2024-03-05T20:57:07.867Z,5.88
2024-03-05T20:59:34.928Z,5.88
2024-03-05T21:02:10.569Z,5.89
2024-03-05T21:04:39.573Z,5.89
2024-03-05T21:07:37.339Z,5.89
2024-03-05T21:13:48.987Z,5.94
2024-03-05T21:16:15.941Z,5.94
2024-03-05T21:18:42.795Z,5.95
2024-03-05T21:21:14.164Z,5.96
2024-03-05T21:23:42.054Z,5.97
2024-03-05T21:26:20.407Z,5.98
2024-03-05T21:28:55.634Z,5.97
2024-03-05T21:31:22.444Z,5.98
2024-03-05T21:33:49.993Z,5.98
2024-03-05T21:36:17.422Z,5.97
2024-03-05T21:38:45.517Z,5.97
2024-03-05T21:41:13.141Z,5.99
2024-03-05T21:43:40.234Z,6.01
2024-03-05T21:46:06.951Z,5.99
2024-03-05T21:48:34.558Z,5.99
2024-03-05T21:51:06.732Z,6.01
2024-03-05T21:53:39.851Z,6.02
2024-03-05T21:56:07.129Z,6.03
2024-03-05T21:58:34.246Z,6.06
2024-03-05T22:01:02.247Z,6.07
2024-03-05T22:03:29.733Z,6.06
2024-03-05T22:06:02.097Z,6.06
2024-03-05T22:08:32.486Z,6.07
2024-03-05T22:10:59.309Z,6.08
2024-03-05T22:13:28.470Z,6.09
2024-03-05T22:15:55.769Z,6.11
2024-03-05T22:18:22.480Z,6.11
2024-03-05T22:20:51.000Z,6.10
2024-03-05T22:23:17.724Z,6.08
2024-03-05T22:25:46.443Z,6.09
2024-03-05T22:28:15.207Z,6.09
2024-03-05T22:30:43.020Z,6.10
2024-03-05T22:33:11.250Z,6.08
2024-03-05T22:35:38.669Z,6.10
2024-03-05T22:38:05.974Z,6.10
2024-03-05T22:40:32.547Z,6.12
2024-03-05T22:42:59.313Z,6.13
2024-03-05T22:45:28.257Z,6.12
2024-03-05T22:47:54.964Z,6.11
2024-03-05T22:50:21.926Z,6.12
2024-03-05T22:52:51.391Z,6.14
2024-03-05T22:55:18.115Z,6.15
2024-03-05T22:57:44.758Z,6.14
2024-03-05T23:00:25.423Z,6.14
2024-03-05T23:02:52.973Z,6.15
2024-03-05T23:05:20.487Z,6.16
2024-03-05T23:07:48.813Z,6.17
2024-03-05T23:10:16.949Z,6.16
2024-03-05T23:12:45.044Z,6.16
2024-03-05T23:15:16.099Z,6.17
2024-03-05T23:17:43.937Z,6.17
2024-03-05T23:20:11.911Z,6.18
2024-03-05T23:22:39.528Z,6.20
2024-03-05T23:25:10.727Z,6.22
2024-03-05T23:27:37.654Z,6.20
2024-03-05T23:30:04.795Z,6.20
2024-03-05T23:32:32.448Z,6.20
2024-03-05T23:34:59.886Z,6.20
2024-03-05T23:37:26.766Z,6.20
2024-03-05T23:39:54.332Z,6.21
2024-03-05T23:42:21.131Z,6.21
2024-03-05T23:44:47.930Z,6.20
2024-03-05T23:47:15.024Z,6.19
2024-03-05T23:49:41.785Z,6.18
2024-03-05T23:52:09.354Z,6.17
2024-03-05T23:54:36.075Z,6.16
2024-03-05T23:57:03.251Z,6.18
2024-03-05T23:59:29.857Z,6.19
